createdAt,value
2018-07-22T02:25:20.381Z,10.37
2018-07-22T02:27:48.748Z,10.47
2018-07-22T02:30:17.253Z,10.60
2018-07-22T02:32:46.535Z,11.93
2018-07-22T02:35:15.510Z,11.63
2018-07-22T02:37:43.823Z,11.20
2018-07-22T02:40:12.663Z,12.63
2018-07-22T02:42:41.130Z,11.10
2018-07-22T02:45:09.711Z,10.63
2018-07-22T02:47:38.155Z,10.57
2018-07-22T02:50:06.538Z,9.73
2018-07-22T02:52:35.296Z,9.43
2018-07-22T02:55:03.869Z,9.73
2018-07-22T02:57:32.360Z,10.23
2018-07-22T03:00:00.779Z,9.93
2018-07-22T03:02:29.177Z,10.13
2018-07-22T03:04:57.751Z,11.50
2018-07-22T03:07:26.162Z,9.90
2018-07-22T03:09:54.618Z,9.40
2018-07-22T03:12:22.690Z,10.33
2018-07-22T03:14:51.251Z,10.23
2018-07-22T03:17:19.693Z,10.90
2018-07-22T03:19:48.393Z,11.17
2018-07-22T03:22:17.505Z,11.33
2018-07-22T03:24:46.651Z,11.10
2018-07-22T03:27:15.063Z,11.53
2018-07-22T03:29:44.117Z,12.03
2018-07-22T03:32:12.666Z,12.00
2018-07-22T03:34:41.084Z,13.07
2018-07-22T03:37:09.514Z,12.93
2018-07-22T03:39:37.985Z,13.00
2018-07-22T03:42:06.479Z,12.27
2018-07-22T03:44:34.950Z,12.53
2018-07-22T03:47:03.410Z,11.33
2018-07-22T03:49:31.836Z,11.73
2018-07-22T03:52:00.266Z,12.03
2018-07-22T03:54:28.712Z,11.67
2018-07-22T03:56:57.124Z,12.40
2018-07-22T03:59:25.641Z,12.63
2018-07-22T04:01:54.246Z,12.20
2018-07-22T04:04:22.642Z,13.20
2018-07-22T04:06:51.026Z,13.23
2018-07-22T04:09:19.667Z,12.80
2018-07-22T04:11:47.811Z,13.60
2018-07-22T04:14:16.354Z,12.37
2018-07-22T04:16:44.920Z,11.80
2018-07-22T04:19:13.314Z,12.03
2018-07-22T04:21:41.821Z,11.97
2018-07-22T04:24:10.294Z,12.20
2018-07-22T04:26:38.671Z,11.73
2018-07-22T04:29:07.094Z,12.37
2018-07-22T04:31:35.856Z,12.27
2018-07-22T04:34:04.256Z,11.23
2018-07-22T04:36:32.725Z,11.77
2018-07-22T04:39:01.198Z,12.50
2018-07-22T04:41:29.623Z,11.53
2018-07-22T04:43:58.092Z,11.70
2018-07-22T04:46:26.534Z,11.30
2018-07-22T04:48:55.062Z,11.83
2018-07-22T04:51:23.422Z,11.60
2018-07-22T04:53:51.942Z,12.30
2018-07-22T04:56:20.775Z,11.77
2018-07-22T04:58:49.253Z,11.70
2018-07-22T05:01:18.392Z,12.13
2018-07-22T05:03:47.604Z,13.10
2018-07-22T05:06:16.277Z,12.33
2018-07-22T05:08:44.653Z,12.13
2018-07-22T05:11:13.056Z,12.50
2018-07-22T05:13:41.475Z,12.37
2018-07-22T05:16:09.862Z,12.20
2018-07-22T05:18:38.380Z,12.53
2018-07-22T05:21:06.784Z,13.93
2018-07-22T05:23:35.255Z,12.93
2018-07-22T05:26:03.646Z,12.13
2018-07-22T05:28:32.239Z,12.67
2018-07-22T05:31:00.621Z,12.33
2018-07-22T05:33:29.155Z,12.03
2018-07-22T05:35:57.602Z,12.67
2018-07-22T05:38:26.270Z,12.67
2018-07-22T05:40:54.755Z,12.13
2018-07-22T05:43:23.226Z,12.57
2018-07-22T05:45:51.718Z,13.00
2018-07-22T05:48:20.550Z,13.03
2018-07-22T05:50:48.937Z,13.17
2018-07-22T05:53:17.966Z,13.17
2018-07-22T05:55:46.406Z,13.90
2018-07-22T05:58:14.925Z,14.07
2018-07-22T06:00:43.362Z,13.23
2018-07-22T06:03:11.913Z,13.23
2018-07-22T06:05:40.481Z,13.60
2018-07-22T06:08:09.016Z,13.67
2018-07-22T06:10:37.394Z,14.47
2018-07-22T06:13:05.847Z,14.40
2018-07-22T06:15:34.249Z,14.50
2018-07-22T06:18:02.681Z,13.83
2018-07-22T06:20:31.077Z,14.63
2018-07-22T06:22:59.507Z,13.97
2018-07-22T06:25:27.854Z,14.10
2018-07-22T06:27:56.262Z,13.77
2018-07-22T06:30:24.635Z,14.60
2018-07-22T06:32:53.138Z,14.83
2018-07-22T06:35:21.615Z,15.10
2018-07-22T06:37:50.461Z,15.03
2018-07-22T06:40:18.863Z,14.23
2018-07-22T06:42:47.437Z,15.13
2018-07-22T06:45:16.397Z,15.80
2018-07-22T06:47:44.826Z,15.40
2018-07-22T06:50:13.193Z,14.73
2018-07-22T06:52:42.065Z,15.83
2018-07-22T06:55:10.443Z,15.77
2018-07-22T06:57:39.002Z,15.77
2018-07-22T07:00:07.334Z,15.27
2018-07-22T07:02:36.131Z,15.83
2018-07-22T07:05:04.706Z,17.63
2018-07-22T07:07:33.433Z,15.53
2018-07-22T07:10:01.889Z,16.47
2018-07-22T07:12:30.423Z,16.03
2018-07-22T07:14:58.765Z,16.17
2018-07-22T07:17:27.181Z,15.67
2018-07-22T07:19:55.582Z,16.13
2018-07-22T07:22:24.056Z,16.40
2018-07-22T07:24:52.922Z,17.03
2018-07-22T07:27:21.354Z,17.33
2018-07-22T07:29:50.101Z,18.40
2018-07-22T07:32:18.632Z,18.37
2018-07-22T07:34:48.035Z,17.57
2018-07-22T07:37:16.520Z,19.37
2018-07-22T07:39:44.927Z,18.67
2018-07-22T07:42:13.495Z,17.83
2018-07-22T07:44:42.690Z,20.57
2018-07-22T07:47:11.058Z,17.70
2018-07-22T07:49:39.496Z,17.57
2018-07-22T07:52:07.995Z,16.80
2018-07-22T07:54:36.370Z,19.53
2018-07-22T07:57:04.885Z,17.40
2018-07-22T07:59:32.974Z,17.83
2018-07-22T08:02:02.362Z,17.40
2018-07-22T08:04:31.064Z,17.90
2018-07-22T08:06:59.515Z,16.73
2018-07-22T08:09:27.830Z,17.90
2018-07-22T08:11:56.374Z,17.60
2018-07-22T08:14:24.745Z,16.53
2018-07-22T08:16:53.570Z,17.17
2018-07-22T08:19:21.959Z,18.97
2018-07-22T08:21:50.521Z,19.93
2018-07-22T08:24:19.005Z,19.27
2018-07-22T08:26:47.539Z,17.53
2018-07-22T08:29:34.767Z,17.90
2018-07-22T08:32:04.442Z,17.57
2018-07-22T08:34:32.888Z,17.97
2018-07-22T08:37:01.578Z,17.40
2018-07-22T08:39:31.112Z,18.07
2018-07-22T08:42:00.295Z,15.60
2018-07-22T08:44:28.717Z,17.40
2018-07-22T08:46:56.846Z,18.40
2018-07-22T08:49:25.313Z,17.47
2018-07-22T08:51:53.775Z,17.73
2018-07-22T08:54:22.534Z,17.63
2018-07-22T08:56:50.945Z,18.70
2018-07-22T08:59:19.409Z,18.13
2018-07-22T09:01:48.393Z,18.23
2018-07-22T09:04:17.464Z,18.83
2018-07-22T09:06:46.399Z,18.80
2018-07-22T09:09:14.864Z,18.33
2018-07-22T09:11:43.259Z,18.23
2018-07-22T09:14:11.835Z,18.53
2018-07-22T09:16:40.563Z,18.87
2018-07-22T09:19:09.339Z,16.73
2018-07-22T09:21:37.776Z,17.60
2018-07-22T09:24:06.280Z,17.13
2018-07-22T09:26:34.678Z,17.67
2018-07-22T09:29:03.032Z,16.90
2018-07-22T09:31:31.787Z,17.57
2018-07-22T09:34:00.561Z,17.63
2018-07-22T09:36:28.971Z,16.67
2018-07-22T09:38:57.633Z,17.33
2018-07-22T09:41:25.990Z,17.03
2018-07-22T09:43:54.420Z,17.67
2018-07-22T09:46:22.790Z,17.43
2018-07-22T09:48:51.241Z,16.10
2018-07-22T09:51:19.947Z,17.33
2018-07-22T09:53:48.816Z,16.93
2018-07-22T09:56:18.081Z,17.43
2018-07-22T09:58:46.626Z,18.17
2018-07-22T10:01:14.927Z,17.00
2018-07-22T10:03:43.364Z,16.83
2018-07-22T10:06:11.929Z,17.30
2018-07-22T10:08:40.434Z,16.57
2018-07-22T10:11:08.851Z,17.10
2018-07-22T10:13:37.437Z,16.00
2018-07-22T10:16:05.852Z,16.87
2018-07-22T10:18:34.367Z,16.50
2018-07-22T10:21:02.797Z,15.93
2018-07-22T10:23:31.312Z,16.07
2018-07-22T10:25:59.728Z,15.57
2018-07-22T10:28:28.149Z,16.70
2018-07-22T10:30:56.570Z,16.63
2018-07-22T10:33:25.021Z,16.60
2018-07-22T10:35:53.486Z,16.03
2018-07-22T10:38:22.102Z,16.53
2018-07-22T10:40:50.552Z,16.53
2018-07-22T10:43:19.309Z,15.63
2018-07-22T10:45:48.415Z,17.57
2018-07-22T10:48:17.467Z,18.43
2018-07-22T10:50:46.710Z,18.07
2018-07-22T10:53:15.196Z,17.60
2018-07-22T10:55:43.755Z,18.57
2018-07-22T10:58:12.251Z,18.87
2018-07-22T11:00:41.077Z,18.13
2018-07-22T11:03:09.529Z,18.17
2018-07-22T11:05:38.076Z,18.17
2018-07-22T11:08:06.412Z,19.33
2018-07-22T11:10:34.753Z,19.00
2018-07-22T11:13:03.256Z,18.30
2018-07-22T11:15:31.762Z,19.00
2018-07-22T11:18:00.128Z,18.73
2018-07-22T11:20:28.469Z,18.93
2018-07-22T11:22:56.991Z,20.23
2018-07-22T11:25:25.448Z,19.47
2018-07-22T11:27:53.874Z,18.27
2018-07-22T11:30:22.264Z,19.63
2018-07-22T11:32:51.149Z,18.40
2018-07-22T11:35:19.849Z,20.47
2018-07-22T11:37:48.889Z,18.67
2018-07-22T11:40:17.976Z,18.37
2018-07-22T11:42:46.803Z,19.20
2018-07-22T11:45:15.185Z,20.30
2018-07-22T11:47:43.313Z,18.97
2018-07-22T11:50:11.724Z,17.23
2018-07-22T11:52:40.172Z,19.23
2018-07-22T11:55:08.902Z,18.20
2018-07-22T11:57:37.034Z,17.87
2018-07-22T12:00:06.041Z,18.10
2018-07-22T12:02:34.670Z,19.70
2018-07-22T12:05:03.096Z,17.73
2018-07-22T12:07:31.611Z,18.93
2018-07-22T12:10:00.179Z,18.27
2018-07-22T12:12:28.609Z,18.93
2018-07-22T12:14:57.147Z,19.50
2018-07-22T12:17:25.587Z,18.97
2018-07-22T12:19:54.010Z,20.43
2018-07-22T12:22:22.531Z,19.50
2018-07-22T12:24:50.927Z,18.43
2018-07-22T12:27:19.407Z,18.53
2018-07-22T12:29:48.819Z,19.43
2018-07-22T12:32:17.846Z,19.27
2018-07-22T12:34:46.698Z,18.10
2018-07-22T12:37:15.826Z,18.33
2018-07-22T12:39:44.945Z,17.47
2018-07-22T12:42:13.382Z,17.27
2018-07-22T12:44:41.807Z,16.80
2018-07-22T12:47:10.450Z,16.47
2018-07-22T12:49:38.844Z,15.60
2018-07-22T12:52:07.329Z,14.93
2018-07-22T12:54:35.935Z,15.33
2018-07-22T12:57:04.841Z,15.40
2018-07-22T12:59:33.211Z,15.03
2018-07-22T13:02:01.688Z,14.73
2018-07-22T13:04:30.092Z,13.97
2018-07-22T13:06:58.557Z,13.47
2018-07-22T13:09:27.381Z,13.50
2018-07-22T13:11:55.932Z,12.33
2018-07-22T13:14:24.386Z,12.80
2018-07-22T13:16:52.836Z,11.90
2018-07-22T13:19:21.161Z,12.43
2018-07-22T13:21:49.557Z,13.80
2018-07-22T13:24:18.668Z,12.90
2018-07-22T13:26:47.851Z,12.60
2018-07-22T13:29:16.811Z,11.57
2018-07-22T13:31:45.237Z,11.77
2018-07-22T13:34:13.671Z,12.03
2018-07-22T13:36:42.143Z,11.23
2018-07-22T13:39:11.734Z,11.10
2018-07-22T13:41:40.951Z,10.37
2018-07-22T13:44:09.337Z,11.90
2018-07-22T13:46:38.202Z,11.47
2018-07-22T13:49:06.789Z,12.13
2018-07-22T13:51:35.597Z,11.37
2018-07-22T13:54:04.170Z,11.93
2018-07-22T13:56:32.615Z,13.10
2018-07-22T13:59:01.004Z,11.33
2018-07-22T14:01:29.549Z,11.57
2018-07-22T14:03:58.157Z,11.27
2018-07-22T14:06:26.593Z,11.83
2018-07-22T14:08:54.981Z,12.17
2018-07-22T14:11:23.529Z,10.50
2018-07-22T14:13:51.856Z,10.80
2018-07-22T14:16:20.261Z,10.30
2018-07-22T14:18:49.490Z,10.23
2018-07-22T14:21:18.878Z,9.60
2018-07-22T14:23:47.302Z,9.13
2018-07-22T14:26:15.841Z,8.80
2018-07-22T14:28:45.046Z,8.63
2018-07-22T14:31:14.538Z,8.40
2018-07-22T14:33:43.066Z,8.47
2018-07-22T14:36:11.630Z,8.63
2018-07-22T14:38:40.056Z,8.97
2018-07-22T14:41:08.641Z,9.07
2018-07-22T14:43:37.282Z,9.17
2018-07-22T14:46:06.114Z,9.47
2018-07-22T14:48:34.470Z,9.13
2018-07-22T14:51:02.957Z,8.13
2018-07-22T14:53:31.398Z,9.17
2018-07-22T14:56:00.012Z,9.23
2018-07-22T14:58:28.448Z,9.57
2018-07-22T15:00:56.940Z,8.07
2018-07-22T15:03:25.386Z,8.13
2018-07-22T15:05:53.914Z,9.07
2018-07-22T15:08:22.813Z,9.20
2018-07-22T15:10:51.340Z,9.20
2018-07-22T15:13:19.693Z,9.17
2018-07-22T15:15:48.492Z,8.97
2018-07-22T15:18:16.914Z,9.40
2018-07-22T15:20:45.385Z,8.07
2018-07-22T15:23:14.428Z,9.10
2018-07-22T15:25:43.159Z,9.40
2018-07-22T15:28:11.850Z,9.17
2018-07-22T15:30:40.293Z,9.00
2018-07-22T15:33:09.086Z,8.70
2018-07-22T15:35:37.585Z,9.73
2018-07-22T15:38:06.025Z,9.30
2018-07-22T15:40:35.579Z,9.30
2018-07-22T15:43:04.374Z,9.23
2018-07-22T15:45:33.051Z,8.87
2018-07-22T15:48:01.450Z,10.10
2018-07-22T15:50:30.074Z,9.90
2018-07-22T15:52:58.466Z,10.47
2018-07-22T15:55:27.101Z,10.80
2018-07-22T15:57:55.835Z,9.80
2018-07-22T16:00:24.389Z,10.80
2018-07-22T16:02:52.774Z,11.40
2018-07-22T16:05:21.245Z,12.17
2018-07-22T16:07:49.589Z,10.90
2018-07-22T16:10:18.367Z,13.27
2018-07-22T16:12:47.206Z,11.77
2018-07-22T16:15:15.819Z,12.37
2018-07-22T16:17:45.107Z,11.57
2018-07-22T16:20:13.708Z,11.97
2018-07-22T16:22:42.590Z,10.80
2018-07-22T16:25:11.410Z,12.13
2018-07-22T16:27:39.816Z,11.63
2018-07-22T16:30:08.901Z,11.87
2018-07-22T16:32:37.295Z,12.03
2018-07-22T16:35:05.943Z,11.57
2018-07-22T16:37:34.337Z,12.10
2018-07-22T16:40:02.937Z,12.70
2018-07-22T16:42:31.382Z,12.27
2018-07-22T16:44:59.971Z,13.27
2018-07-22T16:47:28.476Z,13.23
2018-07-22T16:49:57.143Z,13.17
2018-07-22T16:52:25.542Z,12.60
2018-07-22T16:54:54.053Z,14.27
2018-07-22T16:57:22.413Z,14.27
2018-07-22T16:59:51.061Z,14.00
2018-07-22T17:02:19.462Z,14.03
2018-07-22T17:04:48.021Z,14.37
2018-07-22T17:07:16.424Z,13.73
2018-07-22T17:09:45.871Z,13.23
2018-07-22T17:12:15.398Z,13.90
2018-07-22T17:14:44.713Z,13.63
2018-07-22T17:17:13.885Z,14.17
2018-07-22T17:19:42.254Z,13.57
2018-07-22T17:22:10.630Z,14.00
2018-07-22T17:24:39.233Z,13.90
2018-07-22T17:27:07.680Z,12.97
2018-07-22T17:29:36.103Z,14.97
2018-07-22T17:32:04.490Z,13.93
2018-07-22T17:34:33.167Z,14.37
2018-07-22T17:37:01.534Z,14.97
2018-07-22T17:39:30.062Z,14.60
2018-07-22T17:41:58.456Z,14.57
2018-07-22T17:44:27.046Z,13.83
2018-07-22T17:46:55.587Z,14.70
2018-07-22T17:49:24.002Z,14.10
2018-07-22T17:51:52.387Z,14.13
2018-07-22T17:54:20.945Z,13.50
2018-07-22T17:56:49.363Z,14.63
2018-07-22T17:59:17.812Z,12.80
2018-07-22T18:01:46.394Z,14.23
2018-07-22T18:04:16.628Z,13.80
2018-07-22T18:06:45.900Z,14.50
2018-07-22T18:09:15.234Z,14.50
2018-07-22T18:11:43.936Z,14.73
2018-07-22T18:14:12.582Z,15.50
2018-07-22T18:16:41.110Z,15.60
2018-07-22T18:19:09.663Z,15.97
2018-07-22T18:21:38.063Z,16.07
2018-07-22T18:24:06.907Z,16.40
2018-07-22T18:26:35.391Z,15.70
2018-07-22T18:29:04.014Z,15.70
2018-07-22T18:31:32.519Z,15.97
2018-07-22T18:34:00.978Z,16.33
2018-07-22T18:36:29.380Z,16.23
2018-07-22T18:38:57.860Z,16.53
2018-07-22T18:41:26.300Z,16.77
2018-07-22T18:43:54.842Z,16.90
2018-07-22T18:46:23.212Z,16.93
2018-07-22T18:48:52.000Z,16.00
2018-07-22T18:51:20.650Z,18.47
2018-07-22T18:53:48.830Z,16.90
2018-07-22T18:56:17.231Z,17.50
2018-07-22T18:58:46.443Z,18.00
2018-07-22T19:01:15.674Z,17.40
2018-07-22T19:03:44.227Z,17.23
2018-07-22T19:06:12.831Z,18.50
2018-07-22T19:08:41.386Z,17.90
2018-07-22T19:11:09.790Z,18.17
2018-07-22T19:13:38.429Z,17.57
2018-07-22T19:16:06.871Z,16.73
2018-07-22T19:18:35.361Z,17.37
2018-07-22T19:21:04.174Z,17.37
2018-07-22T19:23:32.641Z,17.87
2018-07-22T19:26:00.982Z,17.33
2018-07-22T19:28:29.396Z,17.60
2018-07-22T19:30:57.744Z,18.53
2018-07-22T19:33:26.519Z,18.67
2018-07-22T19:35:55.979Z,16.87
2018-07-22T19:38:24.806Z,17.53
2018-07-22T19:40:53.198Z,17.20
2018-07-22T19:43:22.314Z,18.00
2018-07-22T19:45:50.787Z,18.17
2018-07-22T19:48:19.260Z,19.60
2018-07-22T19:50:47.605Z,17.77
2018-07-22T19:53:16.145Z,17.93
2018-07-22T19:55:44.546Z,17.27
2018-07-22T19:58:13.057Z,17.07
2018-07-22T20:00:41.515Z,16.83
2018-07-22T20:03:10.520Z,16.73
2018-07-22T20:05:38.966Z,18.00
2018-07-22T20:08:07.566Z,16.57
2018-07-22T20:10:35.937Z,17.50
2018-07-22T20:13:04.755Z,17.17
2018-07-22T20:15:33.137Z,16.37
2018-07-22T20:18:01.599Z,16.83
2018-07-22T20:20:29.969Z,17.33
2018-07-22T20:22:58.383Z,16.30
2018-07-22T20:25:26.853Z,16.87
2018-07-22T20:27:55.435Z,18.03
2018-07-22T20:30:23.879Z,18.53
2018-07-22T20:32:52.428Z,17.43
2018-07-22T20:35:20.934Z,17.60
2018-07-22T20:37:49.454Z,17.20
2018-07-22T20:40:17.883Z,17.23
2018-07-22T20:42:46.999Z,16.73
2018-07-22T20:45:16.458Z,17.50
2018-07-22T20:47:45.683Z,16.20
2018-07-22T20:50:14.815Z,17.33
2018-07-22T20:52:43.306Z,18.37
2018-07-22T20:55:11.673Z,17.33
2018-07-22T20:57:40.279Z,18.03
2018-07-22T21:00:08.666Z,17.47
2018-07-22T21:02:37.189Z,18.13
2018-07-22T21:05:05.591Z,17.67
2018-07-22T21:07:34.080Z,18.13
2018-07-22T21:10:02.468Z,16.77
2018-07-22T21:12:46.373Z,18.00
2018-07-22T21:15:15.830Z,18.93
2018-07-22T21:17:45.826Z,17.90
2018-07-22T21:20:14.804Z,19.33
2018-07-22T21:22:43.314Z,19.97
2018-07-22T21:25:12.034Z,19.67
2018-07-22T21:27:40.565Z,18.83
2018-07-22T21:30:10.144Z,17.40
2018-07-22T21:32:39.025Z,16.97
2018-07-22T21:35:07.786Z,18.53
2018-07-22T21:37:36.237Z,17.97
2018-07-22T21:40:05.110Z,20.37
2018-07-22T21:42:33.430Z,20.40
2018-07-22T21:45:02.322Z,20.00
2018-07-22T21:47:30.906Z,20.93
2018-07-22T21:49:59.268Z,18.10
2018-07-22T21:52:27.717Z,21.03
2018-07-22T21:54:56.124Z,22.17
2018-07-22T21:57:24.747Z,20.60
2018-07-22T21:59:53.150Z,18.77
2018-07-22T22:02:25.893Z,19.20
2018-07-22T22:04:55.484Z,20.63
2018-07-22T22:07:24.287Z,20.80
2018-07-22T22:09:52.805Z,20.07
2018-07-22T22:12:21.791Z,19.87
2018-07-22T22:14:50.195Z,20.40
2018-07-22T22:17:19.170Z,18.67
2018-07-22T22:19:47.711Z,19.40
2018-07-22T22:22:16.185Z,19.50
2018-07-22T22:24:45.355Z,18.60
2018-07-22T22:27:13.884Z,17.83
2018-07-22T22:29:42.597Z,18.13
2018-07-22T22:32:11.217Z,19.53
2018-07-22T22:34:39.594Z,19.70
2018-07-22T22:37:08.074Z,20.23
2018-07-22T22:39:36.573Z,19.93
2018-07-22T22:42:05.009Z,19.00
2018-07-22T22:44:33.411Z,19.23
2018-07-22T22:47:01.850Z,18.23
2018-07-22T22:49:30.263Z,18.07
2018-07-22T22:51:58.793Z,17.47
2018-07-22T22:54:27.429Z,17.37
2018-07-22T22:56:56.234Z,17.83
2018-07-22T22:59:24.681Z,18.17
2018-07-22T23:01:53.222Z,19.03
2018-07-22T23:04:21.562Z,18.27
2018-07-22T23:06:50.019Z,18.83
2018-07-22T23:09:18.449Z,19.97
2018-07-22T23:11:46.899Z,20.43
2018-07-22T23:14:15.727Z,21.87
2018-07-22T23:16:44.893Z,21.43
2018-07-22T23:19:13.997Z,20.83
2018-07-22T23:21:42.754Z,20.50
2018-07-22T23:24:11.479Z,21.60
2018-07-22T23:26:40.107Z,20.60
2018-07-22T23:29:08.548Z,21.63
2018-07-22T23:31:37.959Z,21.00
2018-07-22T23:34:06.383Z,22.27
2018-07-22T23:36:34.858Z,21.43
2018-07-22T23:39:03.516Z,21.93
2018-07-22T23:41:32.103Z,22.47
2018-07-22T23:44:00.537Z,23.07
2018-07-22T23:46:28.882Z,23.23
2018-07-22T23:48:57.376Z,23.23
2018-07-22T23:51:25.856Z,22.47
2018-07-22T23:53:54.360Z,24.43
2018-07-22T23:56:22.786Z,24.13
2018-07-22T23:58:51.230Z,22.27
